sensor_id;sensor_type;location;lat;lon;timestamp;P1;durP1;ratioP1;P2;durP2;ratioP2
13969;SDS011;7057;49.984;8.404;2022-07-11T00:01:50;4.10;;;2.80;;
13969;SDS011;7057;49.984;8.404;2022-07-11T00:04:17;3.00;;;2.70;;
13969;SDS011;7057;49.984;8.404;2022-07-11T00:06:46;3.30;;;3.00;;
13969;SDS011;7057;49.984;8.404;2022-07-11T00:09:13;4.50;;;2.70;;
13969;SDS011;7057;49.984;8.404;2022-07-11T00:11:40;3.07;;;2.77;;
13969;SDS011;7057;49.984;8.404;2022-07-11T00:14:09;3.13;;;2.83;;
13969;SDS011;7057;49.984;8.404;2022-07-11T00:16:36;5.10;;;3.00;;
13969;SDS011;7057;49.984;8.404;2022-07-11T00:19:03;3.50;;;2.97;;
13969;SDS011;7057;49.984;8.404;2022-07-11T00:21:31;6.47;;;3.50;;
13969;SDS011;7057;49.984;8.404;2022-07-11T00:24:01;3.20;;;2.90;;
13969;SDS011;7057;49.984;8.404;2022-07-11T00:26:29;3.40;;;3.10;;
13969;SDS011;7057;49.984;8.404;2022-07-11T00:28:56;3.57;;;3.27;;
13969;SDS011;7057;49.984;8.404;2022-07-11T00:31:25;3.20;;;2.90;;
13969;SDS011;7057;49.984;8.404;2022-07-11T00:33:52;3.30;;;3.00;;
13969;SDS011;7057;49.984;8.404;2022-07-11T00:36:19;4.67;;;3.00;;
13969;SDS011;7057;49.984;8.404;2022-07-11T00:38:47;4.40;;;3.03;;
13969;SDS011;7057;49.984;8.404;2022-07-11T00:41:14;4.13;;;3.47;;
13969;SDS011;7057;49.984;8.404;2022-07-11T00:43:42;3.93;;;2.90;;
13969;SDS011;7057;49.984;8.404;2022-07-11T00:46:09;4.40;;;3.43;;
13969;SDS011;7057;49.984;8.404;2022-07-11T00:48:39;3.40;;;3.10;;
13969;SDS011;7057;49.984;8.404;2022-07-11T00:51:06;3.43;;;3.13;;
13969;SDS011;7057;49.984;8.404;2022-07-11T00:53:33;3.20;;;3.00;;
13969;SDS011;7057;49.984;8.404;2022-07-11T00:56:02;3.40;;;3.10;;
13969;SDS011;7057;49.984;8.404;2022-07-11T00:58:29;4.47;;;3.30;;
13969;SDS011;7057;49.984;8.404;2022-07-11T01:00:57;3.53;;;3.23;;
13969;SDS011;7057;49.984;8.404;2022-07-11T01:03:24;5.60;;;3.27;;
13969;SDS011;7057;49.984;8.404;2022-07-11T01:05:53;3.97;;;3.57;;
13969;SDS011;7057;49.984;8.404;2022-07-11T01:08:20;4.27;;;3.17;;
13969;SDS011;7057;49.984;8.404;2022-07-11T01:10:47;3.30;;;3.00;;
13969;SDS011;7057;49.984;8.404;2022-07-11T01:13:14;3.13;;;2.80;;
13969;SDS011;7057;49.984;8.404;2022-07-11T01:15:41;3.47;;;3.00;;
13969;SDS011;7057;49.984;8.404;2022-07-11T01:18:09;4.13;;;3.00;;
13969;SDS011;7057;49.984;8.404;2022-07-11T01:20:36;5.23;;;2.73;;
13969;SDS011;7057;49.984;8.404;2022-07-11T01:23:05;3.47;;;3.17;;
13969;SDS011;7057;49.984;8.404;2022-07-11T01:25:32;3.87;;;3.57;;
13969;SDS011;7057;49.984;8.404;2022-07-11T01:28:01;7.67;;;3.10;;
13969;SDS011;7057;49.984;8.404;2022-07-11T01:30:30;3.40;;;3.10;;
13969;SDS011;7057;49.984;8.404;2022-07-11T01:32:57;4.90;;;3.43;;
13969;SDS011;7057;49.984;8.404;2022-07-11T01:35:26;4.87;;;3.17;;
13969;SDS011;7057;49.984;8.404;2022-07-11T01:37:55;5.77;;;3.13;;
13969;SDS011;7057;49.984;8.404;2022-07-11T01:40:23;3.80;;;3.10;;
13969;SDS011;7057;49.984;8.404;2022-07-11T01:42:50;6.00;;;3.40;;
13969;SDS011;7057;49.984;8.404;2022-07-11T01:45:17;4.40;;;3.20;;
13969;SDS011;7057;49.984;8.404;2022-07-11T01:47:45;3.20;;;3.00;;
13969;SDS011;7057;49.984;8.404;2022-07-11T01:50:12;3.57;;;3.20;;
13969;SDS011;7057;49.984;8.404;2022-07-11T01:52:39;3.60;;;3.30;;
13969;SDS011;7057;49.984;8.404;2022-07-11T01:55:07;3.20;;;3.00;;
13969;SDS011;7057;49.984;8.404;2022-07-11T01:57:38;3.17;;;2.87;;
13969;SDS011;7057;49.984;8.404;2022-07-11T02:00:05;5.80;;;3.30;;
13969;SDS011;7057;49.984;8.404;2022-07-11T02:02:36;6.10;;;3.43;;
13969;SDS011;7057;49.984;8.404;2022-07-11T02:05:04;3.43;;;3.00;;
13969;SDS011;7057;49.984;8.404;2022-07-11T02:07:31;3.20;;;2.90;;
13969;SDS011;7057;49.984;8.404;2022-07-11T02:10:16;2.93;;;2.73;;
13969;SDS011;7057;49.984;8.404;2022-07-11T02:12:44;3.27;;;2.70;;
13969;SDS011;7057;49.984;8.404;2022-07-11T02:15:12;3.73;;;2.97;;
13969;SDS011;7057;49.984;8.404;2022-07-11T02:17:39;6.50;;;3.00;;
13969;SDS011;7057;49.984;8.404;2022-07-11T02:20:07;3.17;;;2.93;;
13969;SDS011;7057;49.984;8.404;2022-07-11T02:22:34;3.97;;;3.07;;
13969;SDS011;7057;49.984;8.404;2022-07-11T02:25:02;3.77;;;2.70;;
13969;SDS011;7057;49.984;8.404;2022-07-11T02:27:29;3.10;;;2.80;;
13969;SDS011;7057;49.984;8.404;2022-07-11T02:29:58;3.13;;;2.70;;
13969;SDS011;7057;49.984;8.404;2022-07-11T02:32:25;3.43;;;2.53;;
13969;SDS011;7057;49.984;8.404;2022-07-11T02:34:52;3.13;;;2.80;;
13969;SDS011;7057;49.984;8.404;2022-07-11T02:37:19;3.20;;;2.90;;
13969;SDS011;7057;49.984;8.404;2022-07-11T02:39:46;4.13;;;2.80;;
13969;SDS011;7057;49.984;8.404;2022-07-11T02:42:14;3.67;;;3.20;;
13969;SDS011;7057;49.984;8.404;2022-07-11T02:44:41;3.00;;;2.80;;
13969;SDS011;7057;49.984;8.404;2022-07-11T02:47:09;3.20;;;2.90;;
13969;SDS011;7057;49.984;8.404;2022-07-11T02:49:37;3.57;;;3.27;;
13969;SDS011;7057;49.984;8.404;2022-07-11T02:52:04;3.33;;;3.03;;
13969;SDS011;7057;49.984;8.404;2022-07-11T02:54:32;3.27;;;2.80;;
13969;SDS011;7057;49.984;8.404;2022-07-11T02:56:59;3.50;;;3.10;;
13969;SDS011;7057;49.984;8.404;2022-07-11T02:59:26;5.00;;;2.83;;
13969;SDS011;7057;49.984;8.404;2022-07-11T03:01:54;3.53;;;2.67;;
13969;SDS011;7057;49.984;8.404;2022-07-11T03:04:22;3.20;;;2.90;;
13969;SDS011;7057;49.984;8.404;2022-07-11T03:06:49;4.13;;;3.17;;
13969;SDS011;7057;49.984;8.404;2022-07-11T03:09:16;4.67;;;3.10;;
13969;SDS011;7057;49.984;8.404;2022-07-11T03:11:44;3.47;;;3.17;;
13969;SDS011;7057;49.984;8.404;2022-07-11T03:14:11;2.93;;;2.63;;
13969;SDS011;7057;49.984;8.404;2022-07-11T03:16:38;3.60;;;3.30;;
13969;SDS011;7057;49.984;8.404;2022-07-11T03:19:05;3.33;;;3.03;;
13969;SDS011;7057;49.984;8.404;2022-07-11T03:21:34;3.87;;;3.10;;
13969;SDS011;7057;49.984;8.404;2022-07-11T03:24:01;3.47;;;3.17;;
13969;SDS011;7057;49.984;8.404;2022-07-11T03:26:28;3.50;;;2.97;;
13969;SDS011;7057;49.984;8.404;2022-07-11T03:28:55;3.70;;;3.23;;
13969;SDS011;7057;49.984;8.404;2022-07-11T03:31:23;2.80;;;2.60;;
13969;SDS011;7057;49.984;8.404;2022-07-11T03:33:50;3.23;;;2.70;;
13969;SDS011;7057;49.984;8.404;2022-07-11T03:36:17;3.40;;;3.10;;
13969;SDS011;7057;49.984;8.404;2022-07-11T03:38:45;3.43;;;2.93;;
13969;SDS011;7057;49.984;8.404;2022-07-11T03:41:13;3.23;;;2.93;;
13969;SDS011;7057;49.984;8.404;2022-07-11T03:43:40;5.07;;;3.17;;
13969;SDS011;7057;49.984;8.404;2022-07-11T03:46:07;4.07;;;3.03;;
13969;SDS011;7057;49.984;8.404;2022-07-11T03:48:35;3.87;;;2.83;;
13969;SDS011;7057;49.984;8.404;2022-07-11T03:51:02;4.37;;;3.10;;
13969;SDS011;7057;49.984;8.404;2022-07-11T03:53:29;5.70;;;3.30;;
13969;SDS011;7057;49.984;8.404;2022-07-11T03:55:58;4.60;;;3.03;;
13969;SDS011;7057;49.984;8.404;2022-07-11T03:58:25;3.47;;;3.17;;
13969;SDS011;7057;49.984;8.404;2022-07-11T04:00:52;3.47;;;3.07;;
13969;SDS011;7057;49.984;8.404;2022-07-11T04:03:19;2.87;;;2.67;;
13969;SDS011;7057;49.984;8.404;2022-07-11T04:05:46;3.27;;;2.80;;
13969;SDS011;7057;49.984;8.404;2022-07-11T04:08:13;4.60;;;3.30;;
13969;SDS011;7057;49.984;8.404;2022-07-11T04:10:41;3.63;;;3.20;;
13969;SDS011;7057;49.984;8.404;2022-07-11T04:13:09;3.43;;;2.70;;
13969;SDS011;7057;49.984;8.404;2022-07-11T04:15:36;5.13;;;3.07;;
13969;SDS011;7057;49.984;8.404;2022-07-11T04:18:04;4.43;;;3.00;;
13969;SDS011;7057;49.984;8.404;2022-07-11T04:20:31;3.10;;;2.80;;
13969;SDS011;7057;49.984;8.404;2022-07-11T04:22:58;4.23;;;2.70;;
13969;SDS011;7057;49.984;8.404;2022-07-11T04:25:25;2.97;;;2.67;;
13969;SDS011;7057;49.984;8.404;2022-07-11T04:27:52;2.80;;;2.60;;
13969;SDS011;7057;49.984;8.404;2022-07-11T04:30:21;4.23;;;3.20;;
13969;SDS011;7057;49.984;8.404;2022-07-11T04:32:48;3.30;;;2.73;;
13969;SDS011;7057;49.984;8.404;2022-07-11T04:35:15;3.23;;;2.90;;
13969;SDS011;7057;49.984;8.404;2022-07-11T04:37:43;3.43;;;2.90;;
13969;SDS011;7057;49.984;8.404;2022-07-11T04:40:10;6.37;;;3.23;;
13969;SDS011;7057;49.984;8.404;2022-07-11T04:42:38;4.93;;;2.80;;
13969;SDS011;7057;49.984;8.404;2022-07-11T04:45:05;3.00;;;2.57;;
13969;SDS011;7057;49.984;8.404;2022-07-11T04:47:34;3.00;;;2.70;;
13969;SDS011;7057;49.984;8.404;2022-07-11T04:50:01;4.60;;;2.67;;
13969;SDS011;7057;49.984;8.404;2022-07-11T04:52:29;3.10;;;2.80;;
13969;SDS011;7057;49.984;8.404;2022-07-11T04:54:56;3.20;;;2.90;;
13969;SDS011;7057;49.984;8.404;2022-07-11T04:57:23;3.97;;;2.73;;
13969;SDS011;7057;49.984;8.404;2022-07-11T04:59:51;2.63;;;2.20;;
13969;SDS011;7057;49.984;8.404;2022-07-11T05:02:18;3.80;;;2.57;;
13969;SDS011;7057;49.984;8.404;2022-07-11T05:04:47;4.83;;;2.60;;
13969;SDS011;7057;49.984;8.404;2022-07-11T05:07:14;3.30;;;2.63;;
13969;SDS011;7057;49.984;8.404;2022-07-11T05:09:42;3.73;;;3.00;;
13969;SDS011;7057;49.984;8.404;2022-07-11T05:12:09;2.63;;;2.10;;
13969;SDS011;7057;49.984;8.404;2022-07-11T05:14:37;3.87;;;2.50;;
13969;SDS011;7057;49.984;8.404;2022-07-11T05:17:04;2.97;;;2.40;;
13969;SDS011;7057;49.984;8.404;2022-07-11T05:19:32;2.90;;;2.67;;
13969;SDS011;7057;49.984;8.404;2022-07-11T05:22:00;3.03;;;2.80;;
13969;SDS011;7057;49.984;8.404;2022-07-11T05:24:28;3.43;;;2.30;;
13969;SDS011;7057;49.984;8.404;2022-07-11T05:26:55;4.57;;;2.57;;
13969;SDS011;7057;49.984;8.404;2022-07-11T05:29:22;2.50;;;2.30;;
13969;SDS011;7057;49.984;8.404;2022-07-11T05:31:49;3.37;;;2.80;;
13969;SDS011;7057;49.984;8.404;2022-07-11T05:34:18;2.60;;;2.40;;
13969;SDS011;7057;49.984;8.404;2022-07-11T05:36:45;2.37;;;2.10;;
13969;SDS011;7057;49.984;8.404;2022-07-11T05:39:14;5.23;;;2.90;;
13969;SDS011;7057;49.984;8.404;2022-07-11T05:41:41;2.50;;;2.30;;
13969;SDS011;7057;49.984;8.404;2022-07-11T05:44:08;3.20;;;2.20;;
13969;SDS011;7057;49.984;8.404;2022-07-11T05:46:36;3.23;;;2.50;;
13969;SDS011;7057;49.984;8.404;2022-07-11T05:49:05;3.83;;;2.30;;
13969;SDS011;7057;49.984;8.404;2022-07-11T05:51:33;3.03;;;2.23;;
13969;SDS011;7057;49.984;8.404;2022-07-11T05:54:01;4.33;;;2.30;;
13969;SDS011;7057;49.984;8.404;2022-07-11T05:56:30;7.13;;;2.70;;
13969;SDS011;7057;49.984;8.404;2022-07-11T05:58:57;4.80;;;2.03;;
13969;SDS011;7057;49.984;8.404;2022-07-11T06:01:24;2.30;;;2.10;;
13969;SDS011;7057;49.984;8.404;2022-07-11T06:03:52;4.20;;;2.30;;
13969;SDS011;7057;49.984;8.404;2022-07-11T06:06:19;4.40;;;2.50;;
13969;SDS011;7057;49.984;8.404;2022-07-11T06:08:46;5.33;;;2.83;;
13969;SDS011;7057;49.984;8.404;2022-07-11T06:11:14;5.37;;;2.47;;
13969;SDS011;7057;49.984;8.404;2022-07-11T06:13:43;3.30;;;2.37;;
13969;SDS011;7057;49.984;8.404;2022-07-11T06:16:11;3.17;;;2.57;;
13969;SDS011;7057;49.984;8.404;2022-07-11T06:18:38;3.77;;;2.30;;
13969;SDS011;7057;49.984;8.404;2022-07-11T06:21:06;4.83;;;2.70;;
13969;SDS011;7057;49.984;8.404;2022-07-11T06:23:33;3.70;;;2.60;;
13969;SDS011;7057;49.984;8.404;2022-07-11T06:26:01;2.53;;;2.33;;
13969;SDS011;7057;49.984;8.404;2022-07-11T06:28:29;2.70;;;2.50;;
13969;SDS011;7057;49.984;8.404;2022-07-11T06:30:57;3.77;;;2.43;;
13969;SDS011;7057;49.984;8.404;2022-07-11T06:33:25;4.60;;;2.80;;
13969;SDS011;7057;49.984;8.404;2022-07-11T06:35:52;4.53;;;3.33;;
13969;SDS011;7057;49.984;8.404;2022-07-11T06:38:19;4.43;;;3.60;;
13969;SDS011;7057;49.984;8.404;2022-07-11T06:40:47;4.43;;;3.27;;
13969;SDS011;7057;49.984;8.404;2022-07-11T06:43:14;4.20;;;3.23;;
13969;SDS011;7057;49.984;8.404;2022-07-11T06:45:41;3.97;;;3.53;;
13969;SDS011;7057;49.984;8.404;2022-07-11T06:48:10;4.70;;;4.20;;
13969;SDS011;7057;49.984;8.404;2022-07-11T06:50:37;4.50;;;3.50;;
13969;SDS011;7057;49.984;8.404;2022-07-11T06:53:04;5.50;;;3.43;;
13969;SDS011;7057;49.984;8.404;2022-07-11T06:55:32;4.30;;;3.70;;
13969;SDS011;7057;49.984;8.404;2022-07-11T06:58:00;6.30;;;3.80;;
13969;SDS011;7057;49.984;8.404;2022-07-11T07:00:27;5.13;;;3.93;;
13969;SDS011;7057;49.984;8.404;2022-07-11T07:02:55;4.83;;;3.57;;
13969;SDS011;7057;49.984;8.404;2022-07-11T07:05:24;5.37;;;3.70;;
13969;SDS011;7057;49.984;8.404;2022-07-11T07:07:51;3.50;;;3.20;;
13969;SDS011;7057;49.984;8.404;2022-07-11T07:10:19;4.90;;;4.00;;
13969;SDS011;7057;49.984;8.404;2022-07-11T07:12:46;4.60;;;3.70;;
13969;SDS011;7057;49.984;8.404;2022-07-11T07:15:13;5.17;;;3.50;;
13969;SDS011;7057;49.984;8.404;2022-07-11T07:17:40;4.87;;;3.33;;
13969;SDS011;7057;49.984;8.404;2022-07-11T07:20:08;3.13;;;2.87;;
13969;SDS011;7057;49.984;8.404;2022-07-11T07:22:38;4.43;;;3.17;;
13969;SDS011;7057;49.984;8.404;2022-07-11T07:25:06;4.43;;;3.33;;
13969;SDS011;7057;49.984;8.404;2022-07-11T07:27:35;4.20;;;3.07;;
13969;SDS011;7057;49.984;8.404;2022-07-11T07:30:02;3.83;;;3.07;;
13969;SDS011;7057;49.984;8.404;2022-07-11T07:32:30;3.60;;;2.87;;
13969;SDS011;7057;49.984;8.404;2022-07-11T07:34:57;3.20;;;2.90;;
13969;SDS011;7057;49.984;8.404;2022-07-11T07:37:25;3.37;;;3.07;;
13969;SDS011;7057;49.984;8.404;2022-07-11T07:39:54;4.07;;;2.77;;
13969;SDS011;7057;49.984;8.404;2022-07-11T07:42:21;2.83;;;2.40;;
13969;SDS011;7057;49.984;8.404;2022-07-11T07:44:48;4.80;;;2.20;;
13969;SDS011;7057;49.984;8.404;2022-07-11T07:47:16;4.40;;;2.50;;
13969;SDS011;7057;49.984;8.404;2022-07-11T07:49:43;2.67;;;2.30;;
13969;SDS011;7057;49.984;8.404;2022-07-11T07:52:10;3.23;;;2.17;;
13969;SDS011;7057;49.984;8.404;2022-07-11T07:54:37;2.30;;;2.10;;
13969;SDS011;7057;49.984;8.404;2022-07-11T07:57:06;2.47;;;2.27;;
13969;SDS011;7057;49.984;8.404;2022-07-11T07:59:33;5.63;;;3.00;;
13969;SDS011;7057;49.984;8.404;2022-07-11T08:02:00;4.23;;;2.47;;
13969;SDS011;7057;49.984;8.404;2022-07-11T08:04:26;3.40;;;2.57;;
13969;SDS011;7057;49.984;8.404;2022-07-11T08:06:54;3.07;;;2.77;;
13969;SDS011;7057;49.984;8.404;2022-07-11T08:09:24;2.83;;;2.40;;
13969;SDS011;7057;49.984;8.404;2022-07-11T08:11:52;2.90;;;2.57;;
13969;SDS011;7057;49.984;8.404;2022-07-11T08:14:20;2.53;;;2.33;;
13969;SDS011;7057;49.984;8.404;2022-07-11T08:16:49;6.70;;;2.13;;
13969;SDS011;7057;49.984;8.404;2022-07-11T08:19:16;1.77;;;1.67;;
13969;SDS011;7057;49.984;8.404;2022-07-11T08:21:43;2.13;;;1.93;;
13969;SDS011;7057;49.984;8.404;2022-07-11T08:24:10;1.90;;;1.70;;
13969;SDS011;7057;49.984;8.404;2022-07-11T08:26:38;1.67;;;1.57;;
13969;SDS011;7057;49.984;8.404;2022-07-11T08:29:05;1.90;;;1.80;;
13969;SDS011;7057;49.984;8.404;2022-07-11T08:31:34;3.47;;;1.63;;
13969;SDS011;7057;49.984;8.404;2022-07-11T08:34:02;2.23;;;2.03;;
13969;SDS011;7057;49.984;8.404;2022-07-11T08:36:29;2.80;;;2.00;;
13969;SDS011;7057;49.984;8.404;2022-07-11T08:39:00;2.20;;;2.00;;
13969;SDS011;7057;49.984;8.404;2022-07-11T08:41:27;2.33;;;2.13;;
13969;SDS011;7057;49.984;8.404;2022-07-11T08:43:55;3.83;;;2.03;;
13969;SDS011;7057;49.984;8.404;2022-07-11T08:46:23;2.13;;;1.93;;
13969;SDS011;7057;49.984;8.404;2022-07-11T08:48:52;2.37;;;2.13;;
13969;SDS011;7057;49.984;8.404;2022-07-11T08:51:20;2.23;;;2.03;;
13969;SDS011;7057;49.984;8.404;2022-07-11T08:53:49;2.17;;;1.97;;
13969;SDS011;7057;49.984;8.404;2022-07-11T08:56:17;1.83;;;1.70;;
13969;SDS011;7057;49.984;8.404;2022-07-11T08:58:47;2.40;;;1.93;;
13969;SDS011;7057;49.984;8.404;2022-07-11T09:01:16;2.10;;;2.00;;
13969;SDS011;7057;49.984;8.404;2022-07-11T09:03:46;2.27;;;2.07;;
13969;SDS011;7057;49.984;8.404;2022-07-11T09:06:16;2.67;;;2.33;;
13969;SDS011;7057;49.984;8.404;2022-07-11T09:08:44;1.90;;;1.80;;
13969;SDS011;7057;49.984;8.404;2022-07-11T09:11:11;2.23;;;2.03;;
13969;SDS011;7057;49.984;8.404;2022-07-11T09:13:38;2.83;;;2.40;;
13969;SDS011;7057;49.984;8.404;2022-07-11T09:16:06;3.47;;;2.37;;
13969;SDS011;7057;49.984;8.404;2022-07-11T09:18:35;2.87;;;1.80;;
13969;SDS011;7057;49.984;8.404;2022-07-11T09:21:04;2.83;;;2.27;;
13969;SDS011;7057;49.984;8.404;2022-07-11T09:23:52;2.80;;;2.50;;
13969;SDS011;7057;49.984;8.404;2022-07-11T09:26:39;1.87;;;1.70;;
13969;SDS011;7057;49.984;8.404;2022-07-11T09:29:08;2.20;;;2.00;;
13969;SDS011;7057;49.984;8.404;2022-07-11T09:31:37;2.40;;;2.20;;
13969;SDS011;7057;49.984;8.404;2022-07-11T09:34:05;2.27;;;2.07;;
13969;SDS011;7057;49.984;8.404;2022-07-11T09:36:35;2.30;;;1.97;;
13969;SDS011;7057;49.984;8.404;2022-07-11T09:39:05;2.00;;;1.90;;
13969;SDS011;7057;49.984;8.404;2022-07-11T09:41:34;2.10;;;1.90;;
13969;SDS011;7057;49.984;8.404;2022-07-11T09:46:49;2.20;;;2.00;;
13969;SDS011;7057;49.984;8.404;2022-07-11T09:49:28;2.37;;;2.17;;
13969;SDS011;7057;49.984;8.404;2022-07-11T09:52:00;3.27;;;2.13;;
13969;SDS011;7057;49.984;8.404;2022-07-11T09:54:34;2.00;;;1.87;;
13969;SDS011;7057;49.984;8.404;2022-07-11T09:57:19;2.53;;;2.30;;
13969;SDS011;7057;49.984;8.404;2022-07-11T09:59:55;2.10;;;1.80;;
13969;SDS011;7057;49.984;8.404;2022-07-11T10:02:23;2.37;;;2.17;;
13969;SDS011;7057;49.984;8.404;2022-07-11T10:04:51;2.30;;;1.83;;
13969;SDS011;7057;49.984;8.404;2022-07-11T10:07:18;2.40;;;2.20;;
13969;SDS011;7057;49.984;8.404;2022-07-11T10:09:47;2.53;;;2.23;;
13969;SDS011;7057;49.984;8.404;2022-07-11T10:12:15;2.90;;;1.73;;
13969;SDS011;7057;49.984;8.404;2022-07-11T10:14:43;2.47;;;2.27;;
13969;SDS011;7057;49.984;8.404;2022-07-11T10:17:13;2.80;;;2.60;;
13969;SDS011;7057;49.984;8.404;2022-07-11T10:19:48;2.03;;;1.90;;
13969;SDS011;7057;49.984;8.404;2022-07-11T10:22:19;2.17;;;2.07;;
13969;SDS011;7057;49.984;8.404;2022-07-11T10:24:56;2.20;;;2.00;;
13969;SDS011;7057;49.984;8.404;2022-07-11T10:27:30;2.30;;;2.10;;
13969;SDS011;7057;49.984;8.404;2022-07-11T10:30:03;2.40;;;2.20;;
13969;SDS011;7057;49.984;8.404;2022-07-11T10:32:31;2.13;;;2.00;;
13969;SDS011;7057;49.984;8.404;2022-07-11T10:35:05;3.07;;;2.10;;
13969;SDS011;7057;49.984;8.404;2022-07-11T10:37:46;2.27;;;2.03;;
13969;SDS011;7057;49.984;8.404;2022-07-11T10:40:15;2.50;;;2.27;;
13969;SDS011;7057;49.984;8.404;2022-07-11T10:43:02;2.80;;;2.30;;
13969;SDS011;7057;49.984;8.404;2022-07-11T10:45:29;2.50;;;2.27;;
13969;SDS011;7057;49.984;8.404;2022-07-11T10:48:16;2.50;;;2.30;;
13969;SDS011;7057;49.984;8.404;2022-07-11T10:50:43;2.53;;;2.30;;
13969;SDS011;7057;49.984;8.404;2022-07-11T10:53:11;4.07;;;2.50;;
13969;SDS011;7057;49.984;8.404;2022-07-11T10:55:53;2.70;;;2.50;;
13969;SDS011;7057;49.984;8.404;2022-07-11T10:58:29;2.90;;;2.37;;
13969;SDS011;7057;49.984;8.404;2022-07-11T11:01:07;2.60;;;2.40;;
13969;SDS011;7057;49.984;8.404;2022-07-11T11:03:35;4.47;;;2.33;;
13969;SDS011;7057;49.984;8.404;2022-07-11T11:06:03;2.70;;;2.50;;
13969;SDS011;7057;49.984;8.404;2022-07-11T11:08:40;2.47;;;2.27;;
13969;SDS011;7057;49.984;8.404;2022-07-11T11:14:16;2.53;;;2.33;;
13969;SDS011;7057;49.984;8.404;2022-07-11T11:16:48;2.60;;;2.40;;
13969;SDS011;7057;49.984;8.404;2022-07-11T11:22:22;3.00;;;2.10;;
13969;SDS011;7057;49.984;8.404;2022-07-11T11:24:51;2.53;;;2.10;;
13969;SDS011;7057;49.984;8.404;2022-07-11T11:27:21;3.03;;;2.00;;
13969;SDS011;7057;49.984;8.404;2022-07-11T11:29:49;2.50;;;2.30;;
13969;SDS011;7057;49.984;8.404;2022-07-11T11:32:18;2.60;;;2.40;;
13969;SDS011;7057;49.984;8.404;2022-07-11T11:34:47;3.40;;;2.50;;
13969;SDS011;7057;49.984;8.404;2022-07-11T11:37:15;2.67;;;2.17;;
13969;SDS011;7057;49.984;8.404;2022-07-11T11:39:44;2.57;;;2.37;;
13969;SDS011;7057;49.984;8.404;2022-07-11T11:42:12;2.27;;;2.10;;
13969;SDS011;7057;49.984;8.404;2022-07-11T11:44:49;2.63;;;2.43;;
13969;SDS011;7057;49.984;8.404;2022-07-11T11:47:18;2.17;;;1.97;;
13969;SDS011;7057;49.984;8.404;2022-07-11T11:49:46;2.93;;;2.37;;
13969;SDS011;7057;49.984;8.404;2022-07-11T11:52:14;2.70;;;2.50;;
13969;SDS011;7057;49.984;8.404;2022-07-11T11:54:42;2.83;;;2.27;;
13969;SDS011;7057;49.984;8.404;2022-07-11T11:57:11;2.80;;;2.40;;
13969;SDS011;7057;49.984;8.404;2022-07-11T11:59:39;2.93;;;2.73;;
13969;SDS011;7057;49.984;8.404;2022-07-11T12:02:08;2.57;;;2.37;;
13969;SDS011;7057;49.984;8.404;2022-07-11T12:04:36;2.87;;;2.50;;
13969;SDS011;7057;49.984;8.404;2022-07-11T12:07:04;2.37;;;2.17;;
13969;SDS011;7057;49.984;8.404;2022-07-11T12:09:31;2.30;;;2.10;;
13969;SDS011;7057;49.984;8.404;2022-07-11T12:12:18;4.60;;;2.53;;
13969;SDS011;7057;49.984;8.404;2022-07-11T12:15:05;2.73;;;2.53;;
13969;SDS011;7057;49.984;8.404;2022-07-11T12:17:35;3.27;;;2.30;;
13969;SDS011;7057;49.984;8.404;2022-07-11T12:20:03;2.40;;;2.20;;
13969;SDS011;7057;49.984;8.404;2022-07-11T12:22:40;3.90;;;2.50;;
13969;SDS011;7057;49.984;8.404;2022-07-11T12:25:09;3.00;;;2.80;;
13969;SDS011;7057;49.984;8.404;2022-07-11T12:27:37;4.97;;;2.53;;
13969;SDS011;7057;49.984;8.404;2022-07-11T12:30:05;3.03;;;2.20;;
13969;SDS011;7057;49.984;8.404;2022-07-11T12:32:32;3.20;;;2.00;;
13969;SDS011;7057;49.984;8.404;2022-07-11T12:35:10;3.13;;;2.30;;
13969;SDS011;7057;49.984;8.404;2022-07-11T12:37:39;3.23;;;2.60;;
13969;SDS011;7057;49.984;8.404;2022-07-11T12:40:09;3.27;;;2.30;;
13969;SDS011;7057;49.984;8.404;2022-07-11T12:42:38;2.80;;;2.50;;
13969;SDS011;7057;49.984;8.404;2022-07-11T12:45:06;2.57;;;2.13;;
13969;SDS011;7057;49.984;8.404;2022-07-11T12:47:36;2.27;;;2.07;;
13969;SDS011;7057;49.984;8.404;2022-07-11T12:50:10;2.50;;;2.30;;
13969;SDS011;7057;49.984;8.404;2022-07-11T12:52:40;2.30;;;1.93;;
13969;SDS011;7057;49.984;8.404;2022-07-11T12:55:11;2.00;;;1.90;;
13969;SDS011;7057;49.984;8.404;2022-07-11T12:57:59;3.90;;;2.30;;
13969;SDS011;7057;49.984;8.404;2022-07-11T13:00:31;2.30;;;2.10;;
13969;SDS011;7057;49.984;8.404;2022-07-11T13:03:01;2.57;;;2.37;;
13969;SDS011;7057;49.984;8.404;2022-07-11T13:05:29;2.53;;;2.03;;
13969;SDS011;7057;49.984;8.404;2022-07-11T13:08:20;2.10;;;1.90;;
13969;SDS011;7057;49.984;8.404;2022-07-11T13:11:06;3.07;;;2.13;;
13969;SDS011;7057;49.984;8.404;2022-07-11T13:13:33;2.50;;;2.30;;
13969;SDS011;7057;49.984;8.404;2022-07-11T13:16:01;2.40;;;2.20;;
13969;SDS011;7057;49.984;8.404;2022-07-11T13:18:31;2.40;;;2.17;;
13969;SDS011;7057;49.984;8.404;2022-07-11T13:20:58;2.30;;;2.10;;
13969;SDS011;7057;49.984;8.404;2022-07-11T13:23:26;1.80;;;1.70;;
13969;SDS011;7057;49.984;8.404;2022-07-11T13:25:54;2.83;;;2.10;;
13969;SDS011;7057;49.984;8.404;2022-07-11T13:28:21;2.43;;;2.03;;
13969;SDS011;7057;49.984;8.404;2022-07-11T13:30:49;2.47;;;2.27;;
13969;SDS011;7057;49.984;8.404;2022-07-11T13:33:17;2.80;;;1.93;;
13969;SDS011;7057;49.984;8.404;2022-07-11T13:35:46;1.80;;;1.70;;
13969;SDS011;7057;49.984;8.404;2022-07-11T13:38:14;2.43;;;2.10;;
13969;SDS011;7057;49.984;8.404;2022-07-11T13:40:41;2.20;;;1.90;;
13969;SDS011;7057;49.984;8.404;2022-07-11T13:43:09;1.87;;;1.73;;
13969;SDS011;7057;49.984;8.404;2022-07-11T13:45:37;2.07;;;1.87;;
13969;SDS011;7057;49.984;8.404;2022-07-11T13:48:05;2.27;;;2.07;;
13969;SDS011;7057;49.984;8.404;2022-07-11T13:50:32;2.30;;;2.10;;
13969;SDS011;7057;49.984;8.404;2022-07-11T13:53:01;2.80;;;2.10;;
13969;SDS011;7057;49.984;8.404;2022-07-11T13:55:28;2.27;;;2.07;;
13969;SDS011;7057;49.984;8.404;2022-07-11T13:57:56;1.90;;;1.80;;
13969;SDS011;7057;49.984;8.404;2022-07-11T14:00:24;2.00;;;1.90;;
13969;SDS011;7057;49.984;8.404;2022-07-11T14:02:51;2.27;;;2.07;;
13969;SDS011;7057;49.984;8.404;2022-07-11T14:05:18;1.93;;;1.83;;
13969;SDS011;7057;49.984;8.404;2022-07-11T14:07:46;1.63;;;1.53;;
13969;SDS011;7057;49.984;8.404;2022-07-11T14:10:15;2.30;;;2.07;;
13969;SDS011;7057;49.984;8.404;2022-07-11T14:12:42;2.80;;;1.83;;
13969;SDS011;7057;49.984;8.404;2022-07-11T14:15:10;2.00;;;1.80;;
13969;SDS011;7057;49.984;8.404;2022-07-11T14:17:37;2.07;;;1.97;;
13969;SDS011;7057;49.984;8.404;2022-07-11T14:20:05;2.20;;;2.00;;
13969;SDS011;7057;49.984;8.404;2022-07-11T14:22:33;2.47;;;1.60;;
13969;SDS011;7057;49.984;8.404;2022-07-11T14:25:00;1.73;;;1.63;;
13969;SDS011;7057;49.984;8.404;2022-07-11T14:27:29;2.93;;;1.87;;
13969;SDS011;7057;49.984;8.404;2022-07-11T14:29:56;2.80;;;1.93;;
13969;SDS011;7057;49.984;8.404;2022-07-11T14:32:23;2.00;;;1.70;;
13969;SDS011;7057;49.984;8.404;2022-07-11T14:34:50;1.87;;;1.50;;
13969;SDS011;7057;49.984;8.404;2022-07-11T14:37:17;2.20;;;2.00;;
13969;SDS011;7057;49.984;8.404;2022-07-11T14:39:44;2.57;;;1.63;;
13969;SDS011;7057;49.984;8.404;2022-07-11T14:42:12;2.20;;;2.00;;
13969;SDS011;7057;49.984;8.404;2022-07-11T14:44:40;2.13;;;1.93;;
13969;SDS011;7057;49.984;8.404;2022-07-11T14:47:07;1.83;;;1.73;;
13969;SDS011;7057;49.984;8.404;2022-07-11T14:49:35;1.70;;;1.60;;
13969;SDS011;7057;49.984;8.404;2022-07-11T14:52:03;1.90;;;1.80;;
13969;SDS011;7057;49.984;8.404;2022-07-11T14:54:31;2.37;;;1.93;;
13969;SDS011;7057;49.984;8.404;2022-07-11T14:56:58;2.70;;;2.50;;
13969;SDS011;7057;49.984;8.404;2022-07-11T14:59:26;2.03;;;1.90;;
13969;SDS011;7057;49.984;8.404;2022-07-11T15:01:54;1.50;;;1.40;;
13969;SDS011;7057;49.984;8.404;2022-07-11T15:04:22;2.07;;;1.53;;
13969;SDS011;7057;49.984;8.404;2022-07-11T15:06:49;1.53;;;1.43;;
13969;SDS011;7057;49.984;8.404;2022-07-11T15:09:34;2.00;;;1.80;;
13969;SDS011;7057;49.984;8.404;2022-07-11T15:12:18;1.87;;;1.77;;
13969;SDS011;7057;49.984;8.404;2022-07-11T15:14:49;1.50;;;1.40;;
13969;SDS011;7057;49.984;8.404;2022-07-11T15:17:19;1.73;;;1.63;;
13969;SDS011;7057;49.984;8.404;2022-07-11T15:19:46;1.60;;;1.50;;